Latest Weather Observations for Bega

IDN60801

Issued at 6:03 am EST Monday 25 July 2016 (issued every 30 minutes, with the page automatically refreshed every 10 minutes)

About weather observations | Map of weather stations | Latest weather observations for NSW | Other Formats
Station Details ID: 069139 Name: BEGA AWS Lat: -36.67 Lon: 149.82 Height: 41.0 m
Data from the previous 72 hours. | See also: Recent months at Bega
Date/Time
EST
Temp
°C
App
Temp
°C
Dew
Point
°C
Rel
Hum
%
Delta-T
°C
Wind Press
QNH
hPa
Press
MSL
hPa
Rain since
9am
mm
Dir  Spd
km/h
Gust
km/h
Spd
kts
Gust
kts
25/06:00am 1.9 -0.7 1.2 95 0.3 W 4 9 2 5 1007.2 1007.3 0.0
25/05:30am 2.2 -0.9 1.3 94 0.3 S 7 13 4 7 1007.0 1007.1 0.0
25/05:00am 2.5 0.3 1.0 90 0.6 WSW 2 6 1 3 1006.7 1006.8 0.0
25/04:30am 2.6 0.0 1.1 90 0.6 N 4 7 2 4 1006.6 1006.7 0.0
25/04:00am 2.5 0.6 0.7 88 0.7 CALM 0 6 0 3 1006.5 1006.6 0.0
25/03:30am 3.1 0.6 1.5 89 0.6 WSW 4 7 2 4 1006.5 1006.6 0.0
25/03:00am 3.0 0.9 1.7 91 0.5 SSW 2 7 1 4 1006.6 1006.7 0.0
25/02:30am 3.2 1.1 1.9 91 0.5 SSE 2 7 1 4 1006.8 1006.9 0.0
25/02:00am 3.4 1.7 1.6 88 0.7 CALM 0 0 0 0 1006.8 1006.9 0.0
25/01:30am 3.2 0.7 1.6 89 0.6 WNW 4 7 2 4 1006.9 1007.0 0.0
25/01:00am 3.1 1.3 1.3 88 0.7 CALM 0 6 0 3 1007.0 1007.1 0.0
25/12:30am 3.3 0.1 1.0 85 0.9 SSW 7 9 4 5 1007.1 1007.2 0.0
25/12:00am 3.9 2.1 0.9 81 1.2 CALM 0 0 0 0 1007.4 1007.5 0.0
 
Date/Time
EST
Temp
°C
App
Temp
°C
Dew
Point
°C
Rel
Hum
%
Delta-T
°C
Wind Press
QNH
hPa
Press
MSL
hPa
Rain since
9am
mm
Dir  Spd
km/h
Gust
km/h
Spd
kts
Gust
kts
24/11:30pm 4.0 1.0 0.5 78 1.3 NNW 6 9 3 5 1007.7 1007.8 0.0
24/11:00pm 3.7 0.1 0.9 82 1.1 SSW 9 13 5 7 1007.8 1007.9 0.0
24/10:30pm 7.4 3.4 0.4 61 2.8 NW 11 19 6 10 1007.9 1008.0 0.0
24/10:00pm 5.5 2.4 1.6 76 1.6 N 7 11 4 6 1008.2 1008.3 0.0
24/09:30pm 5.6 3.8 1.5 75 1.6 CALM 0 0 0 0 1008.6 1008.7 0.0
24/09:00pm 5.8 3.3 1.7 75 1.6 ENE 4 9 2 5 1008.9 1009.0 0.0
24/08:30pm 5.7 3.6 1.4 74 1.7 NE 2 7 1 4 1009.1 1009.2 0.0
24/08:00pm 6.5 4.7 1.2 69 2.1 CALM 0 0 0 0 1009.2 1009.3 0.0
24/07:30pm 6.7 4.9 1.0 67 2.3 CALM 0 0 0 0 1009.2 1009.3 0.0
24/07:00pm 7.9 3.9 0.6 60 2.9 NNW 11 15 6 8 1009.1 1009.2 0.0
24/06:30pm 7.2 5.3 0.4 62 2.7 CALM 0 0 0 0 1009.0 1009.1 0.0
24/06:00pm 7.3 4.1 -0.2 59 2.9 W 6 9 3 5 1008.9 1009.0 0.0
24/05:30pm 9.6 7.5 -0.9 48 4.1 CALM 0 2 0 1 1008.6 1008.7 0.0
24/05:00pm 11.2 7.9 -1.5 41 5.0 NW 6 9 3 5 1008.7 1008.8 0.0
24/04:30pm 13.1 9.1 -2.0 35 6.0 WNW 9 11 5 6 1008.6 1008.7 0.0
24/04:00pm 13.7 8.6 -1.9 34 6.3 WNW 15 22 8 12 1008.6 1008.7 0.0
24/03:30pm 13.1 6.9 -2.8 33 6.2 NW 20 30 11 16 1008.7 1008.8 0.0
24/03:00pm 13.2 7.7 -1.9 35 6.0 WNW 17 26 9 14 1008.7 1008.8 0.0
24/02:30pm 14.4 9.0 -1.6 33 6.5 NW 17 26 9 14 1009.0 1009.1 0.0
24/02:00pm 14.8 9.4 -1.3 33 6.6 NNW 17 30 9 16 1009.3 1009.4 0.0
24/01:30pm 12.8 7.7 -2.3 35 5.9 NW 15 24 8 13 1009.7 1009.8 0.0
24/01:00pm 12.8 7.8 -1.1 38 5.6 N 15 20 8 11 1010.3 1010.4 0.0
24/12:30pm 14.6 9.7 -0.3 36 6.2 N 15 24 8 13 1010.7 1010.8 0.0
24/12:00pm 14.0 8.5 0.6 40 5.7 NNE 19 26 10 14 1011.3 1011.4 0.0
24/11:30am 13.5 9.2 1.2 43 5.3 ENE 13 22 7 12 1011.7 1011.8 0.0
24/11:00am 11.3 8.5 2.3 54 3.9 ENE 6 11 3 6 1012.5 1012.6 0.0
24/10:30am 10.0 7.5 1.6 56 3.5 E 4 7 2 4 1013.1 1013.2 0.0
24/10:00am 7.6 5.5 1.5 65 2.5 S 2 6 1 3 1013.6 1013.7 0.0
24/09:30am 6.0 4.2 1.5 73 1.8 CALM 0 0 0 0 1014.1 1014.2 0.0
24/09:00am 5.0 2.8 0.9 75 1.6 SSE 2 7 1 4 1013.6 1013.7 0.0
24/08:30am 3.1 0.0 0.3 82 1.1 ESE 6 7 3 4 1013.4 1013.5 0.0
24/08:00am 1.8 -0.2 0.2 89 0.6 CALM 0 6 0 3 1013.5 1013.6 0.0
24/07:30am 0.3 -2.2 -1.0 91 0.5 S 2 6 1 3 1013.1 1013.2 0.0
24/07:00am 0.1 -2.4 -1.2 91 0.5 NNW 2 6 1 3 1013.1 1013.2 0.0
24/06:30am 0.4 -2.6 -1.5 87 0.7 S 4 7 2 4 1013.0 1013.1 0.0
24/06:00am 2.1 -1.2 -1.2 79 1.2 NW 6 9 3 5 1012.7 1012.8 0.0
24/05:30am 1.7 -1.5 -0.7 84 0.9 E 6 9 3 5 1012.4 1012.5 0.0
24/05:00am 2.2 -1.0 -0.7 81 1.0 SW 6 7 3 4 1012.2 1012.3 0.0
24/04:30am 4.7 1.3 -0.9 67 2.1 W 7 9 4 5 1011.6 1011.7 0.0
24/04:00am 4.1 2.0 -0.7 71 1.8 CALM 0 6 0 3 1011.7 1011.8 0.0
24/03:30am 4.5 2.4 -1.1 67 2.1 CALM 0 6 0 3 1011.4 1011.5 0.0
24/03:00am 7.2 3.3 -1.5 54 3.3 WSW 9 11 5 6 1011.1 1011.2 0.0
24/02:30am 8.0 4.5 -1.2 52 3.5 W 7 13 4 7 1011.0 1011.1 0.0
24/02:00am 8.2 4.3 -1.3 51 3.6 W 9 13 5 7 1011.0 1011.1 0.0
24/01:30am 8.3 4.8 -1.5 50 3.7 SW 7 9 4 5 1010.8 1010.9 0.0
24/01:00am 9.2 5.3 -1.8 46 4.2 WSW 9 17 5 9 1010.6 1010.7 0.0
24/12:30am 9.8 5.1 -1.9 44 4.5 W 13 22 7 12 1010.1 1010.2 0.0
24/12:00am 9.8 5.1 -1.9 44 4.5 W 13 20 7 11 1010.1 1010.2 0.0
 
Date/Time
EST
Temp
°C
App
Temp
°C
Dew
Point
°C
Rel
Hum
%
Delta-T
°C
Wind Press
QNH
hPa
Press
MSL
hPa
Rain since
9am
mm
Dir  Spd
km/h
Gust
km/h
Spd
kts
Gust
kts
23/11:30pm 10.2 5.1 -2.1 42 4.7 W 15 35 8 19 1009.9 1010.0 0.0
23/11:00pm 10.2 4.7 -2.1 42 4.7 W 17 26 9 14 1009.5 1009.6 0.0
23/10:30pm 10.3 6.4 -1.7 43 4.7 WSW 9 15 5 8 1009.5 1009.6 0.0
23/10:00pm 10.8 4.9 -2.6 39 5.1 WSW 19 32 10 17 1009.0 1009.1 0.0
23/09:30pm 11.1 3.4 -3.0 37 5.4 W 28 43 15 23 1008.6 1008.7 0.0
23/09:00pm 11.3 2.8 -3.2 36 5.5 W 32 57 17 31 1008.2 1008.3 0.0
23/08:55pm 11.5 3.7 -3.4 35 5.6 WSW 28 57 15 31 1008.1 1008.2 0.0
23/08:30pm 11.3 4.7 -3.6 35 5.6 W 22 44 12 24 1007.9 1008.0 0.0
23/08:00pm 11.2 4.2 -3.7 35 5.6 W 24 35 13 19 1007.4 1007.5 0.0
23/07:30pm 11.1 5.4 -3.4 36 5.5 W 17 26 9 14 1007.1 1007.2 0.0
23/07:00pm 10.8 5.1 -3.7 36 5.4 W 17 32 9 17 1006.7 1006.8 0.0
23/06:30pm 11.1 4.8 -3.8 35 5.6 W 20 33 11 18 1005.9 1006.0 0.0
23/06:00pm 11.2 4.6 -3.7 35 5.6 W 22 35 12 19 1005.1 1005.2 0.0
23/05:30pm 11.6 5.4 -3.3 35 5.6 W 20 33 11 18 1004.7 1004.8 0.0
23/05:00pm 12.1 6.1 -3.3 34 5.9 W 19 30 10 16 1004.2 1004.3 0.0
23/04:30pm 13.2 7.0 -3.1 32 6.3 W 20 32 11 17 1003.3 1003.4 0.0
23/04:00pm 14.2 7.0 -2.2 32 6.6 W 26 39 14 21 1002.6 1002.7 0.0
23/03:54pm 14.2 6.6 -2.2 32 6.6 W 28 46 15 25 1002.6 1002.7 0.0
23/03:30pm 14.6 10.0 -1.1 34 6.5 WSW 13 35 7 19 1001.8 1001.9 0.0
23/03:00pm 12.9 6.7 2.2 48 4.7 SW 24 39 13 21 1001.5 1001.6 0.0
23/02:40pm 13.3 6.4 2.8 49 4.6 SSW 28 46 15 25 1000.6 1000.6 0.0
23/02:30pm 13.2 5.6 2.7 49 4.6 SSW 32 44 17 24 1000.2 1000.2 0.0
23/02:00pm 13.2 5.5 3.3 51 4.5 SSW 33 46 18 25 999.7 999.7 0.0
23/01:47pm 12.8 4.6 2.6 50 4.5 SSW 35 56 19 30 999.3 999.3 0.0
23/01:30pm 13.8 6.2 2.7 47 4.9 SSW 32 46 17 25 999.3 999.3 0.0
23/01:04pm 16.3 7.8 -1.7 29 7.4 W 33 54 18 29 998.4 998.4 0.0
23/01:00pm 16.5 7.8 -0.7 31 7.3 W 35 50 19 27 998.3 998.3 0.0
23/12:30pm 16.0 7.2 -1.5 30 7.2 W 35 56 19 30 998.1 998.1 0.0
23/12:00pm 15.6 5.3 -1.0 32 7.0 WSW 43 63 23 34 997.9 997.9 0.0
23/11:30am 15.6 6.4 -1.0 32 6.9 W 37 57 20 31 997.5 997.5 0.0
23/11:00am 15.5 6.1 0.1 35 6.6 WSW 39 63 21 34 997.4 997.4 0.0
23/10:30am 15.1 5.4 0.2 36 6.3 WSW 41 61 22 33 997.0 997.0 0.0
23/10:20am 15.0 8.5 0.1 36 6.3 WSW 24 57 13 31 996.8 996.8 0.0
23/10:00am 14.8 10.1 1.0 39 6.0 WSW 15 24 8 13 997.0 997.0 0.0
23/09:36am 14.2 7.0 0.5 39 5.8 W 28 52 15 28 996.4 996.4 0.0
23/09:30am 14.1 8.4 0.7 40 5.7 W 20 37 11 20 996.6 996.6 0.0
23/09:00am 13.3 7.7 1.0 43 5.3 W 20 39 11 21 996.5 996.5 3.2
23/08:32am 12.9 5.3 0.6 43 5.2 W 30 48 16 26 995.6 995.6 3.2
23/08:30am 12.9 5.3 0.6 43 5.2 W 30 43 16 23 995.7 995.7 3.2
23/08:02am 12.6 4.5 0.7 44 5.0 W 33 52 18 28 995.2 995.2 3.2
23/08:00am 12.6 4.1 0.7 44 5.0 W 35 52 19 28 995.2 995.2 3.2
23/07:30am 12.7 4.7 0.1 42 5.2 W 32 50 17 27 994.4 994.4 3.2
23/07:06am 12.3 5.1 0.7 45 4.9 W 28 48 15 26 994.1 994.1 3.2
23/07:00am 12.0 5.6 0.8 46 4.7 W 24 44 13 24 994.1 994.1 3.2
23/06:32am 12.1 5.1 1.7 49 4.4 WNW 28 50 15 27 993.0 993.0 3.2
23/06:30am 12.0 5.7 1.6 49 4.4 WNW 24 50 13 27 993.1 993.1 3.2
23/06:00am 11.9 5.0 2.4 52 4.2 WNW 28 46 15 25 993.2 993.2 3.2
23/05:46am 11.8 4.9 2.8 54 3.9 WNW 28 48 15 26 993.1 993.1 3.2
23/05:30am 10.5 5.4 4.0 64 2.9 W 20 35 11 19 993.1 993.1 3.2
23/05:10am 13.1 5.9 2.9 50 4.5 W 30 59 16 32 993.7 993.7 3.2
23/05:00am 13.5 7.6 1.5 44 5.2 WNW 22 39 12 21 992.8 992.8 3.2
23/04:30am 13.5 8.1 2.4 47 4.9 WNW 20 32 11 17 992.3 992.3 3.2
23/04:00am 13.9 6.7 3.1 48 4.9 WNW 30 54 16 29 991.9 991.9 3.2
23/03:52am 14.3 7.1 2.9 46 5.1 WNW 30 54 16 29 991.8 991.8 3.2
23/03:45am 14.5 9.1 2.4 44 5.4 WNW 20 43 11 23 991.7 991.7 3.2
23/03:30am 14.3 9.6 2.9 46 5.1 W 17 35 9 19 991.9 991.9 3.2
23/03:00am 14.5 9.2 3.0 46 5.2 NW 20 44 11 24 991.7 991.7 3.2
23/02:30am 14.8 9.2 3.6 47 5.1 WNW 22 43 12 23 992.0 992.0 3.2
23/02:00am 15.2 10.4 4.6 49 5.0 W 19 28 10 15 992.7 992.7 3.2
23/01:30am 15.7 10.0 5.0 49 5.1 W 24 39 13 21 992.8 992.8 3.2
23/01:00am 16.1 11.0 4.2 45 5.6 WNW 20 41 11 22 992.9 992.9 3.2
23/12:30am 15.9 12.0 3.4 43 5.7 WNW 13 24 7 13 992.7 992.7 3.2
23/12:00am 16.2 11.8 2.9 41 6.1 W 15 28 8 15 993.0 993.0 3.2
 
Date/Time
EST
Temp
°C
App
Temp
°C
Dew
Point
°C
Rel
Hum
%
Delta-T
°C
Wind Press
QNH
hPa
Press
MSL
hPa
Rain since
9am
mm
Dir  Spd
km/h
Gust
km/h
Spd
kts
Gust
kts
22/11:30pm 16.3 11.8 4.0 44 5.7 WNW 17 28 9 15 993.5 993.5 3.2
22/11:00pm 16.0 11.9 4.4 46 5.5 WNW 15 26 8 14 994.1 994.1 3.2
22/10:30pm 16.1 11.3 4.8 47 5.3 WNW 19 32 10 17 994.2 994.2 3.2
22/10:00pm 15.8 12.1 4.5 47 5.3 WSW 13 22 7 12 995.1 995.1 3.2
22/09:30pm 15.9 12.2 4.3 46 5.4 W 13 24 7 13 995.4 995.4 3.2
22/09:00pm 16.5 12.1 4.5 45 5.7 W 17 24 9 13 995.7 995.7 3.2
22/08:39pm 17.1 10.6 4.8 44 5.9 W 28 46 15 25 995.7 995.7 3.2
22/08:30pm 17.4 10.5 4.4 42 6.2 W 30 43 16 23 995.5 995.5 3.2
22/08:00pm 17.8 11.7 6.7 48 5.6 WNW 28 48 15 26 995.4 995.4 3.2
22/07:30pm 18.3 11.9 8.6 53 5.0 W 32 52 17 28 995.4 995.4 3.2
22/07:28pm 18.5 12.1 8.5 52 5.2 W 32 52 17 28 995.4 995.4 3.2
22/07:23pm 18.6 13.0 8.6 52 5.2 W 28 52 15 28 995.1 995.1 3.2
22/07:00pm 18.4 14.6 9.7 57 4.6 W 20 32 11 17 994.8 994.8 3.2
22/06:30pm 16.9 15.2 12.4 75 2.5 NNW 13 17 7 9 994.5 994.5 3.2
22/06:00pm 16.8 15.4 13.5 81 1.9 NNW 13 17 7 9 994.5 994.5 3.2
22/05:30pm 16.9 15.6 13.8 82 1.8 W 13 17 7 9 995.3 995.3 2.8
22/05:00pm 17.1 16.0 14.4 84 1.6 NW 13 19 7 10 994.5 994.5 2.8
22/04:30pm 17.4 15.9 14.3 82 1.8 WNW 15 22 8 12 994.2 994.2 2.6
22/04:00pm 18.2 14.2 14.1 77 2.4 WSW 28 41 15 22 994.0 994.0 0.6
22/03:51pm 19.8 16.7 13.5 67 3.6 WSW 22 43 12 23 993.4 993.4 0.4
22/03:30pm 23.5 20.7 11.5 47 6.8 NNW 17 35 9 19 992.4 992.4 0.2
22/03:00pm 23.7 21.0 11.7 47 6.8 NW 17 28 9 15 992.4 992.4 0.2
22/02:30pm 24.3 20.2 11.6 45 7.2 NW 24 41 13 22 992.3 992.3 0.2
22/02:00pm 25.1 19.7 10.9 41 8.0 NW 30 48 16 26 992.7 992.7 0.2
22/01:30pm 26.2 20.3 10.4 37 8.8 NW 32 57 17 31 992.8 992.8 0.2
22/01:21pm 25.9 19.9 10.1 37 8.8 NW 32 63 17 34 992.7 992.7 0.2
22/01:17pm 25.9 20.2 9.7 36 8.9 NW 30 63 16 34 992.5 992.5 0.2
22/01:00pm 25.8 20.3 10.4 38 8.7 WNW 30 50 16 27 993.9 993.9 0.2
22/12:30pm 25.7 19.1 9.9 37 8.7 NW 35 57 19 31 994.2 994.2 0.2
22/12:00pm 25.7 20.6 10.7 39 8.5 WNW 28 54 15 29 995.3 995.3 0.2
22/11:56am 25.3 19.8 10.7 40 8.2 WNW 30 54 16 29 995.2 995.2 0.2
22/11:30am 20.7 19.1 12.7 60 4.5 SW 13 30 7 16 996.2 996.2 0.0
22/11:00am 18.5 17.4 12.0 66 3.6 S 9 13 5 7 997.1 997.1 0.0
22/10:30am 18.6 17.0 11.4 63 3.9 ENE 11 15 6 8 997.5 997.5 0.0
22/10:00am 18.0 15.8 10.9 63 3.9 NE 13 22 7 12 998.2 998.2 0.0
22/09:30am 16.7 15.2 11.8 73 2.7 N 11 17 6 9 998.8 998.8 0.0
22/09:00am 15.0 14.1 10.6 75 2.3 WSW 6 11 3 6 1000.1 1000.1 0.0
22/08:30am 14.1 13.3 9.5 74 2.4 ENE 4 15 2 8 1000.8 1000.8 0.0
22/08:00am 15.2 13.5 9.8 70 2.8 N 9 13 5 7 1001.6 1001.7 0.0
22/07:30am 12.9 10.8 8.4 74 2.2 NNE 9 11 5 6 1002.3 1002.4 0.0
22/07:00am 14.6 11.9 9.0 69 2.9 N 13 17 7 9 1003.0 1003.1 0.0
22/06:30am 13.8 12.0 9.3 74 2.3 N 9 11 5 6 1003.5 1003.6 0.0

Other Formats:

Comma delimited format used in spreadsheet applications
http://www.bom.gov.au/fwo/IDN60801/IDN60801.95931.axf

JavaScript Object Notation format (JSON) in row-major order
http://www.bom.gov.au/fwo/IDN60801/IDN60801.95931.json